createdAt,value
2023-02-22T00:03:39.699Z,80.89
2023-02-22T00:07:41.292Z,80.93
2023-02-22T00:11:45.331Z,80.90
2023-02-22T00:15:46.821Z,80.19
2023-02-22T00:19:49.805Z,80.27
2023-02-22T00:23:51.256Z,80.93
2023-02-22T00:27:52.789Z,82.09
2023-02-22T00:31:54.465Z,81.95
2023-02-22T00:35:57.569Z,82.40
2023-02-22T00:39:59.046Z,83.52
2023-02-22T00:44:00.479Z,84.16
2023-02-22T00:48:03.411Z,85.45
2023-02-22T00:52:06.321Z,86.27
2023-02-22T00:56:07.756Z,85.35
2023-02-22T01:00:15.864Z,85.78
2023-02-22T01:04:17.317Z,85.00
2023-02-22T01:08:20.229Z,84.56
2023-02-22T01:12:21.666Z,84.03
2023-02-22T01:16:23.825Z,84.68
2023-02-22T01:20:27.183Z,85.16
2023-02-22T01:24:29.952Z,85.13
2023-02-22T01:28:31.487Z,85.40
2023-02-22T01:32:32.906Z,83.93
2023-02-22T01:36:34.360Z,84.57
2023-02-22T01:40:39.324Z,84.84
2023-02-22T01:44:40.743Z,83.83
2023-02-22T01:48:45.602Z,84.21
2023-02-22T01:52:47.197Z,85.31
2023-02-22T01:56:54.208Z,84.33
2023-02-22T02:00:55.952Z,84.52
2023-02-22T02:04:57.901Z,83.94
2023-02-22T02:09:04.329Z,84.38
2023-02-22T02:13:08.100Z,83.92
2023-02-22T02:17:12.026Z,84.02
2023-02-22T02:21:38.280Z,84.11
2023-02-22T02:25:57.979Z,84.30
2023-02-22T02:30:29.760Z,83.95
2023-02-22T02:34:36.498Z,83.17
2023-02-22T02:38:44.401Z,82.63
2023-02-22T02:42:54.444Z,82.53
2023-02-22T02:47:01.052Z,81.63
2023-02-22T02:51:07.574Z,82.16
2023-02-22T02:55:10.324Z,82.17
2023-02-22T02:59:26.402Z,81.85
2023-02-22T03:03:51.139Z,82.78
2023-02-22T03:08:01.292Z,84.11
2023-02-22T03:12:15.179Z,83.90
2023-02-22T03:16:26.802Z,84.73
2023-02-22T03:20:31.737Z,85.78
2023-02-22T03:24:39.895Z,86.21
2023-02-22T03:28:46.514Z,85.87
2023-02-22T03:32:53.679Z,86.76
2023-02-22T03:36:59.989Z,86.92
2023-02-22T03:41:04.417Z,88.28
2023-02-22T03:45:08.603Z,88.59
2023-02-22T03:49:14.556Z,89.78
2023-02-22T03:53:16.828Z,90.60
2023-02-22T03:57:25.544Z,90.92
2023-02-22T04:01:27.024Z,90.85
2023-02-22T04:05:28.548Z,91.48
2023-02-22T04:09:30.002Z,92.02
2023-02-22T04:13:32.790Z,92.76
2023-02-22T04:17:34.254Z,91.49
2023-02-22T04:21:35.764Z,92.00
2023-02-22T04:25:37.275Z,92.67
2023-02-22T04:29:40.058Z,93.14
2023-02-22T04:33:41.740Z,93.07
2023-02-22T04:37:43.183Z,93.13
2023-02-22T04:41:44.674Z,92.75
2023-02-22T04:45:47.499Z,92.49
2023-02-22T04:49:48.979Z,90.68
2023-02-22T04:53:50.439Z,91.07
2023-02-22T04:57:51.956Z,91.07
2023-02-22T05:01:55.004Z,90.35
2023-02-22T05:05:56.450Z,90.30
2023-02-22T05:09:57.879Z,90.78
2023-02-22T05:13:59.475Z,90.93
2023-02-22T05:18:02.476Z,91.34
2023-02-22T05:22:04.018Z,90.44
2023-02-22T05:26:05.750Z,90.75
2023-02-22T05:30:08.020Z,90.93
2023-02-22T05:34:10.858Z,90.20
2023-02-22T05:38:13.856Z,91.42
2023-02-22T05:42:15.410Z,91.17
2023-02-22T05:46:16.906Z,91.61
2023-02-22T05:50:20.477Z,91.55
2023-02-22T05:54:21.926Z,92.03
2023-02-22T05:58:23.433Z,91.62
2023-02-22T06:02:24.893Z,91.53
2023-02-22T06:06:27.667Z,91.90
2023-02-22T06:10:29.482Z,91.51
2023-02-22T06:14:30.935Z,92.34
2023-02-22T06:18:32.391Z,91.92
2023-02-22T06:22:35.199Z,91.98
2023-02-22T06:26:36.620Z,91.62
2023-02-22T06:30:38.204Z,91.09
2023-02-22T06:34:39.830Z,91.01
2023-02-22T06:38:43.647Z,91.39
2023-02-22T06:42:47.872Z,91.54
2023-02-22T06:46:50.932Z,90.74
2023-02-22T06:50:52.704Z,90.63
2023-02-22T06:54:55.539Z,90.67
2023-02-22T06:58:57.030Z,90.88
2023-02-22T07:02:59.441Z,90.78
2023-02-22T07:07:00.954Z,90.53
2023-02-22T07:11:04.021Z,91.78
2023-02-22T07:15:06.163Z,92.46
2023-02-22T07:19:07.584Z,92.66
2023-02-22T07:23:09.054Z,92.80
2023-02-22T07:27:11.819Z,93.03
2023-02-22T07:31:13.755Z,92.28
2023-02-22T07:35:17.095Z,91.45
2023-02-22T07:39:18.541Z,90.77
2023-02-22T07:43:23.019Z,89.90
2023-02-22T07:47:24.445Z,87.97
2023-02-22T07:51:25.991Z,86.66
2023-02-22T07:55:29.973Z,87.21
2023-02-22T07:59:32.762Z,86.76
2023-02-22T08:03:35.634Z,86.84
2023-02-22T08:07:37.325Z,86.42
2023-02-22T08:11:38.794Z,83.77
2023-02-22T08:15:42.196Z,84.03
2023-02-22T08:19:43.643Z,84.71
2023-02-22T08:23:45.110Z,82.36
2023-02-22T08:27:46.808Z,81.03
2023-02-22T08:31:51.891Z,82.22
2023-02-22T08:35:53.620Z,81.11
2023-02-22T08:39:55.142Z,81.12
2023-02-22T08:43:56.589Z,81.06
2023-02-22T08:47:59.685Z,79.23
2023-02-22T08:52:01.149Z,78.95
2023-02-22T08:56:02.569Z,78.80
2023-02-22T09:00:05.113Z,79.29
2023-02-22T09:04:07.931Z,78.56
2023-02-22T09:08:10.198Z,78.09
2023-02-22T09:12:11.907Z,77.68
2023-02-22T09:16:13.619Z,77.33
2023-02-22T09:20:19.420Z,76.08
2023-02-22T09:24:20.938Z,74.96
2023-02-22T09:28:22.396Z,75.67
2023-02-22T09:32:24.091Z,75.30
2023-02-22T09:36:26.949Z,74.11
2023-02-22T09:40:31.729Z,73.97
2023-02-22T09:44:42.492Z,73.70
2023-02-22T09:49:04.866Z,72.49
2023-02-22T09:53:17.673Z,72.31
2023-02-22T09:57:27.643Z,71.93
2023-02-22T10:01:32.402Z,71.86
2023-02-22T10:05:37.197Z,72.40
2023-02-22T10:09:42.320Z,71.23
2023-02-22T10:13:52.295Z,72.56
2023-02-22T10:18:02.703Z,71.66
2023-02-22T10:22:20.808Z,70.98
2023-02-22T10:26:26.937Z,72.23
2023-02-22T10:30:34.208Z,69.82
2023-02-22T10:34:41.307Z,70.24
2023-02-22T10:38:51.439Z,70.85
2023-02-22T10:42:54.208Z,69.92
2023-02-22T10:46:55.704Z,66.87
2023-02-22T10:51:00.823Z,66.91
2023-02-22T10:55:14.665Z,65.69
2023-02-22T10:59:29.129Z,66.80
2023-02-22T11:03:30.587Z,66.47
2023-02-22T11:07:34.107Z,65.94
2023-02-22T11:11:36.744Z,66.76
2023-02-22T11:15:39.517Z,63.98
2023-02-22T11:19:47.125Z,63.84
2023-02-22T11:23:49.720Z,63.36
2023-02-22T11:27:52.318Z,62.74
2023-02-22T11:31:55.805Z,64.36
2023-02-22T11:35:59.173Z,63.69
2023-02-22T11:40:07.369Z,63.17
2023-02-22T11:44:14.622Z,62.97
2023-02-22T11:48:20.055Z,62.84
2023-02-22T11:52:28.607Z,61.48
2023-02-22T11:56:38.176Z,62.07
2023-02-22T12:00:52.229Z,62.75
2023-02-22T12:05:10.961Z,62.13
2023-02-22T12:09:18.647Z,62.08
2023-02-22T12:13:34.972Z,62.38
2023-02-22T12:17:59.387Z,63.61
2023-02-22T12:22:07.220Z,65.18
2023-02-22T12:26:14.150Z,62.72
2023-02-22T12:30:20.820Z,63.81
2023-02-22T12:34:30.169Z,63.95
2023-02-22T12:38:37.758Z,64.45
2023-02-22T12:42:50.477Z,63.57
2023-02-22T12:46:53.326Z,63.10
2023-02-22T12:50:58.642Z,63.51
2023-02-22T12:55:09.688Z,66.16
2023-02-22T12:59:18.907Z,63.70
2023-02-22T13:03:31.306Z,62.91
2023-02-22T13:07:42.847Z,64.02
2023-02-22T13:11:54.591Z,62.45
2023-02-22T13:16:03.487Z,65.77
2023-02-22T13:20:13.707Z,66.85
2023-02-22T13:24:21.948Z,68.28
2023-02-22T13:28:31.870Z,68.03
2023-02-22T13:32:47.108Z,68.58
2023-02-22T13:37:03.864Z,68.90
2023-02-22T13:41:32.939Z,69.40
2023-02-22T13:45:52.506Z,68.59
2023-02-22T13:50:15.230Z,69.35
2023-02-22T13:54:37.863Z,67.98
2023-02-22T13:58:53.179Z,68.80
2023-02-22T14:03:02.334Z,69.78
2023-02-22T14:07:20.233Z,72.01
2023-02-22T14:11:39.572Z,73.29
2023-02-22T14:16:21.858Z,73.24
2023-02-22T14:20:30.547Z,73.52
2023-02-22T14:24:42.764Z,75.27
2023-02-22T14:28:56.540Z,75.38
2023-02-22T14:32:58.344Z,75.70
2023-02-22T14:37:04.360Z,77.07
2023-02-22T14:41:06.321Z,77.02
2023-02-22T14:45:17.540Z,80.89
2023-02-22T14:49:22.964Z,79.07
2023-02-22T14:53:30.800Z,79.47
2023-02-22T14:57:43.553Z,79.27
2023-02-22T15:01:55.407Z,79.03
2023-02-22T15:06:05.278Z,78.83
2023-02-22T15:10:23.633Z,78.93
2023-02-22T15:14:26.835Z,80.06
2023-02-22T15:18:34.416Z,80.15
2023-02-22T15:22:36.914Z,79.29
2023-02-22T15:26:49.147Z,79.75
2023-02-22T15:31:14.333Z,80.69
2023-02-22T15:35:18.971Z,82.54
2023-02-22T15:39:23.892Z,81.48
2023-02-22T15:43:31.084Z,81.83
2023-02-22T15:47:32.710Z,81.33
2023-02-22T15:51:39.718Z,83.38
2023-02-22T15:55:45.064Z,84.85
2023-02-22T15:59:52.214Z,85.71
2023-02-22T16:03:57.048Z,85.52
2023-02-22T16:07:58.559Z,86.12
2023-02-22T16:12:22.630Z,87.37
2023-02-22T16:16:29.730Z,87.74
2023-02-22T16:20:33.841Z,88.50
2023-02-22T16:24:36.100Z,88.59
2023-02-22T16:28:47.382Z,89.06
2023-02-22T16:32:50.944Z,89.94
2023-02-22T16:36:52.575Z,89.42
2023-02-22T16:40:56.454Z,89.79
2023-02-22T16:44:57.924Z,90.51
2023-02-22T16:49:00.750Z,91.08
2023-02-22T16:53:02.424Z,91.35
2023-02-22T16:57:04.615Z,91.68
2023-02-22T17:01:06.679Z,92.39
2023-02-22T17:05:14.155Z,93.22
2023-02-22T17:09:16.099Z,93.05
2023-02-22T17:13:25.002Z,93.21
2023-02-22T17:17:28.146Z,93.79
2023-02-22T17:21:31.067Z,94.23
2023-02-22T17:25:37.502Z,95.14
2023-02-22T17:29:39.241Z,95.35
2023-02-22T17:33:40.704Z,95.54
2023-02-22T17:37:43.654Z,96.05
2023-02-22T17:41:45.213Z,95.68
2023-02-22T17:45:47.659Z,96.05
2023-02-22T17:49:49.517Z,95.68
2023-02-22T17:53:52.684Z,95.95
2023-02-22T17:57:55.515Z,95.60
2023-02-22T18:01:57.066Z,95.77
2023-02-22T18:06:00.332Z,95.13
2023-02-22T18:10:04.932Z,95.42
2023-02-22T18:14:08.145Z,94.61
2023-02-22T18:18:11.128Z,96.52
2023-02-22T18:22:12.727Z,94.71
2023-02-22T18:26:17.856Z,92.80
2023-02-22T18:30:19.541Z,90.92
2023-02-22T18:34:21.034Z,90.17
2023-02-22T18:38:22.973Z,89.10
2023-02-22T18:42:27.599Z,88.34
2023-02-22T18:46:29.227Z,88.36
2023-02-22T18:50:30.786Z,88.42
2023-02-22T18:54:32.383Z,88.18
2023-02-22T18:58:35.995Z,88.02
2023-02-22T19:02:37.680Z,88.45
2023-02-22T19:06:40.108Z,87.63
2023-02-22T19:10:41.591Z,88.10
2023-02-22T19:14:44.720Z,87.64
2023-02-22T19:18:46.774Z,87.43
2023-02-22T19:22:48.294Z,87.52
2023-02-22T19:26:49.859Z,87.70
2023-02-22T19:30:52.871Z,87.03
2023-02-22T19:34:54.918Z,87.36
2023-02-22T19:38:57.694Z,88.11
2023-02-22T19:42:59.186Z,87.14
2023-02-22T19:47:03.734Z,87.68
2023-02-22T19:51:06.961Z,88.06
2023-02-22T19:55:09.045Z,87.89
2023-02-22T19:59:10.956Z,88.34
2023-02-22T20:03:13.808Z,87.67
2023-02-22T20:07:15.496Z,88.01
2023-02-22T20:11:17.283Z,88.69
2023-02-22T20:15:18.938Z,88.37
2023-02-22T20:19:21.837Z,88.48
2023-02-22T20:23:23.280Z,88.70
2023-02-22T20:27:24.771Z,89.09
2023-02-22T20:31:27.084Z,88.72
2023-02-22T20:35:29.910Z,89.09
2023-02-22T20:39:31.442Z,88.85
2023-02-22T20:43:33.352Z,88.59
2023-02-22T20:47:34.920Z,88.66
2023-02-22T20:51:38.659Z,87.94
2023-02-22T20:55:48.234Z,88.28
2023-02-22T20:59:49.672Z,88.59
2023-02-22T21:03:51.526Z,88.30
2023-02-22T21:07:55.019Z,88.84
2023-02-22T21:11:56.501Z,88.96
2023-02-22T21:15:57.989Z,88.27
2023-02-22T21:19:59.430Z,88.78
2023-02-22T21:24:02.306Z,88.80
2023-02-22T21:28:04.469Z,88.15
2023-02-22T21:32:06.076Z,88.79
2023-02-22T21:36:10.160Z,88.67
2023-02-22T21:40:14.239Z,88.71
2023-02-22T21:44:16.374Z,89.09
2023-02-22T21:48:17.806Z,89.41
2023-02-22T21:52:19.231Z,89.44
2023-02-22T21:56:24.341Z,89.18
2023-02-22T22:00:25.845Z,89.46
2023-02-22T22:04:30.887Z,89.05
2023-02-22T22:08:32.345Z,89.38
2023-02-22T22:12:39.362Z,89.37
2023-02-22T22:16:40.936Z,88.65
2023-02-22T22:20:42.390Z,88.43
2023-02-22T22:24:43.821Z,88.60
2023-02-22T22:28:48.528Z,88.07
2023-02-22T22:32:49.971Z,87.42
2023-02-22T22:36:51.406Z,87.15
2023-02-22T22:40:53.120Z,87.14
2023-02-22T22:44:55.917Z,87.24
2023-02-22T22:48:57.573Z,87.04
2023-02-22T22:52:59.080Z,87.03
2023-02-22T22:57:00.535Z,86.26
2023-02-22T23:01:03.453Z,86.83
2023-02-22T23:05:05.629Z,86.50
2023-02-22T23:09:09.151Z,86.90
2023-02-22T23:13:11.434Z,86.61
2023-02-22T23:17:15.788Z,86.88
2023-02-22T23:21:18.553Z,87.27
2023-02-22T23:25:21.569Z,85.94
2023-02-22T23:29:23.189Z,86.72
2023-02-22T23:33:26.021Z,87.27
2023-02-22T23:37:27.563Z,87.98
2023-02-22T23:41:28.978Z,87.88
2023-02-22T23:45:30.416Z,86.94
2023-02-22T23:49:33.213Z,87.80
2023-02-22T23:53:35.408Z,88.38
2023-02-22T23:57:36.837Z,88.32
